createdAt,value
2018-03-28T00:00:23.409Z,6.20
2018-03-28T00:02:59.619Z,6.20
2018-03-28T00:05:35.532Z,6.20
2018-03-28T00:08:10.707Z,6.10
2018-03-28T00:10:45.898Z,6.20
2018-03-28T00:13:21.750Z,6.20
2018-03-28T00:15:56.891Z,6.20
2018-03-28T00:18:32.195Z,6.20
2018-03-28T00:21:07.446Z,6.20
2018-03-28T00:23:43.289Z,6.30
2018-03-28T00:26:18.770Z,6.20
2018-03-28T00:28:53.986Z,6.20
2018-03-28T00:31:29.087Z,6.20
2018-03-28T00:34:05.152Z,6.20
2018-03-28T00:36:40.449Z,6.20
2018-03-28T00:39:15.703Z,6.20
2018-03-28T00:41:50.902Z,6.20
2018-03-28T00:44:26.938Z,6.20
2018-03-28T00:47:03.115Z,6.20
2018-03-28T00:49:39.000Z,6.20
2018-03-28T00:52:14.167Z,6.20
2018-03-28T00:54:49.337Z,6.30
2018-03-28T00:57:24.598Z,6.20
2018-03-28T00:59:59.865Z,6.20
2018-03-28T01:02:37.014Z,6.30
2018-03-28T01:05:12.225Z,6.30
2018-03-28T01:07:48.251Z,6.30
2018-03-28T01:10:23.655Z,6.30
2018-03-28T01:12:58.740Z,6.30
2018-03-28T01:15:34.017Z,6.30
2018-03-28T01:18:09.247Z,6.30
2018-03-28T01:20:44.460Z,6.40
2018-03-28T01:23:19.723Z,6.40
2018-03-28T01:25:55.910Z,6.30
2018-03-28T01:28:31.213Z,6.40
2018-03-28T01:31:06.477Z,6.40
2018-03-28T01:33:41.647Z,6.30
2018-03-28T01:36:16.861Z,6.30
2018-03-28T01:38:52.087Z,6.40
2018-03-28T01:41:27.417Z,6.40
2018-03-28T01:44:02.657Z,6.30
2018-03-28T01:46:38.350Z,6.40
2018-03-28T01:49:13.562Z,6.40
2018-03-28T01:51:49.387Z,6.40
2018-03-28T01:54:24.641Z,6.40
2018-03-28T01:56:59.795Z,6.40
2018-03-28T01:59:34.921Z,6.40
2018-03-28T02:02:10.074Z,6.40
2018-03-28T02:04:45.215Z,6.40
2018-03-28T02:07:20.535Z,6.40
2018-03-28T02:09:55.603Z,6.50
2018-03-28T02:12:30.826Z,6.50
2018-03-28T02:15:06.002Z,6.40
2018-03-28T02:17:41.900Z,6.40
2018-03-28T02:20:17.052Z,6.40
2018-03-28T02:22:52.238Z,6.40
2018-03-28T02:25:28.214Z,6.50
2018-03-28T02:28:04.542Z,6.50
2018-03-28T02:30:39.758Z,6.50
2018-03-28T02:33:14.847Z,6.40
2018-03-28T02:35:50.934Z,6.50
2018-03-28T02:38:26.241Z,6.50
2018-03-28T02:41:01.343Z,6.50
2018-03-28T02:43:36.440Z,6.50
2018-03-28T02:46:11.597Z,6.60
2018-03-28T02:48:46.661Z,6.60
2018-03-28T02:51:22.039Z,6.60
2018-03-28T02:53:57.251Z,6.60
2018-03-28T02:56:32.391Z,6.60
2018-03-28T02:59:07.472Z,6.60
2018-03-28T03:01:43.472Z,6.60
2018-03-28T03:04:18.715Z,6.50
2018-03-28T03:06:53.841Z,6.50
2018-03-28T03:09:29.087Z,6.50
2018-03-28T03:12:04.380Z,6.50
2018-03-28T03:14:39.577Z,6.50
2018-03-28T03:17:14.887Z,6.60
2018-03-28T03:19:50.121Z,6.60
2018-03-28T03:22:25.238Z,6.70
2018-03-28T03:25:00.495Z,6.70
2018-03-28T03:27:35.791Z,6.60
2018-03-28T03:30:10.897Z,6.70
2018-03-28T03:32:46.248Z,6.70
2018-03-28T03:35:21.336Z,6.80
2018-03-28T03:37:56.650Z,6.70
2018-03-28T03:40:31.755Z,6.70
2018-03-28T03:43:07.164Z,6.70
2018-03-28T03:45:43.020Z,6.70
2018-03-28T03:48:18.972Z,6.70
2018-03-28T03:53:33.570Z,6.70
2018-03-28T03:56:08.828Z,6.70
2018-03-28T03:58:45.047Z,6.70
2018-03-28T04:01:20.312Z,6.60
2018-03-28T04:03:55.444Z,6.70
2018-03-28T04:06:30.729Z,6.70
2018-03-28T04:09:06.712Z,6.70
2018-03-28T04:11:42.053Z,6.70
2018-03-28T04:14:17.168Z,6.70
2018-03-28T04:16:52.438Z,6.90
2018-03-28T04:19:28.450Z,6.80
2018-03-28T04:22:04.415Z,6.80
2018-03-28T04:24:40.084Z,6.80
2018-03-28T04:27:15.965Z,6.80
2018-03-28T04:29:51.228Z,6.80
2018-03-28T04:32:27.434Z,6.70
2018-03-28T04:35:03.354Z,6.90
2018-03-28T04:37:39.443Z,6.90
2018-03-28T04:40:15.399Z,6.90
2018-03-28T04:42:50.734Z,6.90
2018-03-28T04:45:26.665Z,6.90
2018-03-28T04:48:02.656Z,6.90
2018-03-28T04:50:38.605Z,6.90
2018-03-28T04:53:13.805Z,6.90
2018-03-28T04:55:48.980Z,6.90
2018-03-28T04:58:24.198Z,6.90
2018-03-28T05:01:00.101Z,7.00
2018-03-28T05:03:35.315Z,7.00
2018-03-28T05:06:10.932Z,7.00
2018-03-28T05:08:46.072Z,7.10
2018-03-28T05:11:21.162Z,7.10
2018-03-28T05:13:56.274Z,7.10
2018-03-28T05:16:31.552Z,7.10
2018-03-28T05:19:06.826Z,7.00
2018-03-28T05:21:42.081Z,7.00
2018-03-28T05:24:17.328Z,7.10
2018-03-28T05:26:53.267Z,7.10
2018-03-28T05:29:28.539Z,7.10
2018-03-28T05:32:04.622Z,7.10
2018-03-28T05:34:39.910Z,7.10
2018-03-28T05:37:15.075Z,7.10
2018-03-28T05:39:51.075Z,7.10
2018-03-28T05:42:26.916Z,7.10
2018-03-28T05:45:02.066Z,7.20
2018-03-28T05:47:37.209Z,7.20
2018-03-28T05:50:13.269Z,7.10
2018-03-28T05:52:48.353Z,7.10
2018-03-28T05:55:24.812Z,7.10
2018-03-28T05:58:00.050Z,7.20
2018-03-28T06:00:35.306Z,7.20
2018-03-28T06:03:10.533Z,7.20
2018-03-28T06:05:46.410Z,7.30
2018-03-28T06:08:21.646Z,7.30
2018-03-28T06:10:56.932Z,7.60
2018-03-28T06:13:32.147Z,7.50
2018-03-28T06:16:07.240Z,7.50
2018-03-28T06:18:42.550Z,7.50
2018-03-28T06:21:17.821Z,7.60
2018-03-28T06:23:53.826Z,7.70
2018-03-28T06:26:29.110Z,7.60
2018-03-28T06:29:04.266Z,7.70
2018-03-28T06:31:39.366Z,7.80
2018-03-28T06:34:14.570Z,7.80
2018-03-28T06:36:49.956Z,7.90
2018-03-28T06:39:25.131Z,7.80
2018-03-28T06:42:00.214Z,7.70
2018-03-28T06:44:35.375Z,7.80
2018-03-28T06:47:10.601Z,7.80
2018-03-28T06:49:45.751Z,7.80
2018-03-28T06:52:21.770Z,7.80
2018-03-28T06:54:56.891Z,7.70
2018-03-28T06:57:32.003Z,7.80
2018-03-28T07:00:07.337Z,7.80
2018-03-28T07:02:43.016Z,7.80
2018-03-28T07:05:18.325Z,7.80
2018-03-28T07:07:53.454Z,7.80
2018-03-28T07:10:28.687Z,7.80
2018-03-28T07:13:03.777Z,7.80
2018-03-28T07:15:38.993Z,7.80
2018-03-28T07:18:14.311Z,7.90
2018-03-28T07:20:50.342Z,7.90
2018-03-28T07:23:26.637Z,7.90
2018-03-28T07:26:01.879Z,7.90
2018-03-28T07:28:36.979Z,7.90
2018-03-28T07:31:12.045Z,7.90
2018-03-28T07:33:47.133Z,7.90
2018-03-28T07:36:22.203Z,7.90
2018-03-28T07:38:58.089Z,8.00
2018-03-28T07:41:33.285Z,7.90
2018-03-28T07:44:09.313Z,8.00
2018-03-28T07:46:44.539Z,8.00
2018-03-28T07:49:19.661Z,8.00
2018-03-28T07:51:54.795Z,8.00
2018-03-28T07:54:29.923Z,8.10
2018-03-28T07:57:04.976Z,8.10
2018-03-28T07:59:40.231Z,8.10
2018-03-28T08:02:15.581Z,8.10
2018-03-28T08:04:50.779Z,8.10
2018-03-28T08:07:26.011Z,8.10
2018-03-28T08:10:01.894Z,8.10
2018-03-28T08:12:37.134Z,8.10
2018-03-28T08:15:12.360Z,8.10
2018-03-28T08:17:47.421Z,8.10
2018-03-28T08:20:22.653Z,8.10
2018-03-28T08:22:58.617Z,8.20
2018-03-28T08:25:33.900Z,8.20
2018-03-28T08:28:09.056Z,8.20
2018-03-28T08:30:44.334Z,8.20
2018-03-28T08:33:19.803Z,8.30
2018-03-28T08:35:55.785Z,8.30
2018-03-28T08:38:31.059Z,8.30
2018-03-28T08:41:06.191Z,8.30
2018-03-28T08:43:41.427Z,8.30
2018-03-28T08:46:16.663Z,8.30
2018-03-28T08:48:52.007Z,8.40
2018-03-28T08:51:27.106Z,8.30
2018-03-28T08:54:02.384Z,8.30
2018-03-28T08:56:37.462Z,8.30
2018-03-28T08:59:12.691Z,8.30
2018-03-28T09:01:48.023Z,8.30
2018-03-28T09:04:23.889Z,8.40
2018-03-28T09:06:59.866Z,8.40
2018-03-28T09:09:35.135Z,8.30
2018-03-28T09:12:10.307Z,8.30
2018-03-28T09:14:46.237Z,8.30
2018-03-28T09:17:21.430Z,8.30
2018-03-28T09:19:56.622Z,8.40
2018-03-28T09:22:32.592Z,8.40
2018-03-28T09:25:07.799Z,8.40
2018-03-28T09:27:43.058Z,8.50
2018-03-28T09:30:18.307Z,8.50
2018-03-28T09:32:53.467Z,8.40
2018-03-28T09:35:28.746Z,8.50
2018-03-28T09:38:04.832Z,8.60
2018-03-28T09:40:41.212Z,8.50
2018-03-28T09:43:16.253Z,8.50
2018-03-28T09:45:51.405Z,8.50
2018-03-28T09:48:26.608Z,8.60
2018-03-28T09:51:02.609Z,8.70
2018-03-28T09:53:37.922Z,8.60
2018-03-28T09:56:13.114Z,8.70
2018-03-28T09:58:48.232Z,8.60
2018-03-28T10:01:28.978Z,8.70
2018-03-28T10:04:10.455Z,8.70
2018-03-28T10:06:45.737Z,8.70
2018-03-28T10:09:20.821Z,8.70
2018-03-28T10:11:55.978Z,8.80
2018-03-28T10:14:32.063Z,8.80
2018-03-28T10:17:07.172Z,8.80
2018-03-28T10:19:42.921Z,8.70
2018-03-28T10:22:18.128Z,8.70
2018-03-28T10:24:53.469Z,8.60
2018-03-28T10:27:28.740Z,8.60
2018-03-28T10:30:05.117Z,8.60
2018-03-28T10:32:41.445Z,8.60
2018-03-28T10:35:17.326Z,8.60
2018-03-28T10:37:52.412Z,8.60
2018-03-28T10:40:27.693Z,8.70
2018-03-28T10:43:03.664Z,8.70
2018-03-28T10:45:38.795Z,8.70
2018-03-28T10:48:14.026Z,8.70
2018-03-28T10:50:49.246Z,8.80
2018-03-28T10:53:24.442Z,8.90
2018-03-28T10:55:59.674Z,8.80
2018-03-28T10:58:34.889Z,9.00
2018-03-28T11:01:10.147Z,8.90
2018-03-28T11:03:45.329Z,9.00
2018-03-28T11:06:20.465Z,9.00
2018-03-28T11:08:55.702Z,9.00
2018-03-28T11:11:30.799Z,9.20
2018-03-28T11:14:05.959Z,9.30
2018-03-28T11:16:41.208Z,9.40
2018-03-28T11:19:17.238Z,9.70
2018-03-28T11:21:52.324Z,9.70
2018-03-28T11:24:27.399Z,9.80
2018-03-28T11:27:03.435Z,9.90
2018-03-28T11:29:39.292Z,9.80
2018-03-28T11:32:14.526Z,9.80
2018-03-28T11:34:49.731Z,9.60
2018-03-28T11:37:24.892Z,9.50
2018-03-28T11:40:00.830Z,9.30
2018-03-28T11:42:36.090Z,9.40
2018-03-28T11:45:11.272Z,9.30
2018-03-28T11:47:46.599Z,9.40
2018-03-28T11:50:22.098Z,9.30
2018-03-28T11:52:57.260Z,9.20
2018-03-28T11:55:32.367Z,9.20
2018-03-28T11:58:07.616Z,9.10
2018-03-28T12:00:42.851Z,9.20
2018-03-28T12:03:18.683Z,9.20
2018-03-28T12:05:53.826Z,9.10
2018-03-28T12:08:28.912Z,9.30
2018-03-28T12:11:04.116Z,9.40
2018-03-28T12:13:39.325Z,9.50
2018-03-28T12:16:15.090Z,9.70
2018-03-28T12:18:50.281Z,9.90
2018-03-28T12:21:25.385Z,10.10
2018-03-28T12:24:01.334Z,10.40
2018-03-28T12:26:36.641Z,10.40
2018-03-28T12:29:11.920Z,10.60
2018-03-28T12:31:47.165Z,10.70
2018-03-28T12:34:22.381Z,10.60
2018-03-28T12:36:57.541Z,10.50
2018-03-28T12:39:32.679Z,10.60
2018-03-28T12:42:07.929Z,10.60
2018-03-28T12:44:42.968Z,10.70
2018-03-28T12:47:19.039Z,10.70
2018-03-28T12:49:54.179Z,10.70
2018-03-28T12:52:29.265Z,10.60
2018-03-28T12:55:04.576Z,10.60
2018-03-28T12:57:39.814Z,10.80
2018-03-28T13:00:15.032Z,10.80
2018-03-28T13:02:51.006Z,10.50
2018-03-28T13:05:26.815Z,10.50
2018-03-28T13:08:02.095Z,10.50
2018-03-28T13:10:37.163Z,10.40
2018-03-28T13:13:12.483Z,10.40
2018-03-28T13:15:47.740Z,10.50
2018-03-28T13:18:23.089Z,10.50
2018-03-28T13:20:58.274Z,10.40
2018-03-28T13:23:34.346Z,10.40
2018-03-28T13:26:10.471Z,10.20
2018-03-28T13:28:45.560Z,10.20
2018-03-28T13:31:21.064Z,10.10
2018-03-28T13:33:57.235Z,9.90
2018-03-28T13:36:32.498Z,9.90
2018-03-28T13:39:07.768Z,9.90
2018-03-28T13:41:43.796Z,9.90
2018-03-28T13:44:18.974Z,9.90
2018-03-28T13:46:54.371Z,9.90
2018-03-28T13:49:29.599Z,9.80
2018-03-28T13:52:05.464Z,9.70
2018-03-28T13:54:40.665Z,9.60
2018-03-28T13:57:15.761Z,9.50
2018-03-28T13:59:50.854Z,9.50
2018-03-28T14:02:26.023Z,9.30
2018-03-28T14:05:01.224Z,9.20
2018-03-28T14:07:36.321Z,9.20
2018-03-28T14:10:13.007Z,9.00
2018-03-28T14:12:48.273Z,9.00
2018-03-28T14:15:23.579Z,8.90
2018-03-28T14:17:59.670Z,8.70
2018-03-28T14:20:34.940Z,8.70
2018-03-28T14:23:10.524Z,8.70
2018-03-28T14:25:45.647Z,8.70
2018-03-28T14:28:20.824Z,8.60
2018-03-28T14:30:55.972Z,8.50
2018-03-28T14:33:31.215Z,8.50
2018-03-28T14:36:06.450Z,8.50
2018-03-28T14:38:41.720Z,8.40
2018-03-28T14:41:16.949Z,8.50
2018-03-28T14:43:53.306Z,8.40
2018-03-28T14:46:28.551Z,8.40
2018-03-28T14:49:03.629Z,8.40
2018-03-28T14:51:39.652Z,8.30
2018-03-28T14:54:14.872Z,8.30
2018-03-28T14:56:50.211Z,8.30
2018-03-28T14:59:25.257Z,8.40
2018-03-28T15:02:00.517Z,8.40
2018-03-28T15:04:35.862Z,8.40
2018-03-28T15:07:11.109Z,8.40
2018-03-28T15:09:46.238Z,8.40
2018-03-28T15:12:21.330Z,8.30
2018-03-28T15:14:56.519Z,8.30
2018-03-28T15:17:31.938Z,8.30
2018-03-28T15:20:07.949Z,8.30
2018-03-28T15:22:43.182Z,8.20
2018-03-28T15:25:19.011Z,8.40
2018-03-28T15:27:54.189Z,8.30
2018-03-28T15:30:29.310Z,8.30
2018-03-28T15:33:04.598Z,8.20
2018-03-28T15:35:39.862Z,8.20
2018-03-28T15:38:14.950Z,8.20
2018-03-28T15:40:50.182Z,8.40
2018-03-28T15:43:26.529Z,8.40
2018-03-28T15:46:01.795Z,8.40
2018-03-28T15:48:37.146Z,8.30
2018-03-28T15:51:12.411Z,8.20
2018-03-28T15:53:48.540Z,8.30
2018-03-28T15:56:23.623Z,8.20
2018-03-28T15:58:58.885Z,8.30
2018-03-28T16:01:34.146Z,8.40
2018-03-28T16:04:09.449Z,8.30
2018-03-28T16:06:45.549Z,8.40
2018-03-28T16:09:20.666Z,8.40
2018-03-28T16:11:55.880Z,8.40
2018-03-28T16:14:31.112Z,8.30
2018-03-28T16:17:06.279Z,8.30
2018-03-28T16:19:41.443Z,8.30
2018-03-28T16:22:17.374Z,8.20
2018-03-28T16:24:53.280Z,8.20
2018-03-28T16:27:28.497Z,8.30
2018-03-28T16:30:03.575Z,8.40
2018-03-28T16:32:39.561Z,8.30
2018-03-28T16:35:15.463Z,8.20
2018-03-28T16:37:50.566Z,8.20
2018-03-28T16:40:26.905Z,8.30
2018-03-28T16:43:01.989Z,8.30
2018-03-28T16:45:37.244Z,8.30
2018-03-28T16:48:12.317Z,8.30
2018-03-28T16:50:48.410Z,8.50
2018-03-28T16:53:23.482Z,8.50
2018-03-28T16:55:58.722Z,8.50
2018-03-28T16:58:33.776Z,8.50
2018-03-28T17:01:09.672Z,8.50
2018-03-28T17:03:44.863Z,8.50
2018-03-28T17:06:19.991Z,8.50
2018-03-28T17:08:55.981Z,8.50
2018-03-28T17:11:32.012Z,8.50
2018-03-28T17:14:07.189Z,8.50
2018-03-28T17:16:42.449Z,8.40
2018-03-28T17:19:17.645Z,8.50
2018-03-28T17:21:52.918Z,8.50
2018-03-28T17:24:28.014Z,8.40
2018-03-28T17:27:03.266Z,8.50
2018-03-28T17:29:38.433Z,8.60
2018-03-28T17:32:13.963Z,8.50
2018-03-28T17:34:49.050Z,8.50
2018-03-28T17:37:24.264Z,8.50
2018-03-28T17:39:59.473Z,8.50
2018-03-28T17:42:34.599Z,8.60
2018-03-28T17:45:09.911Z,8.50
2018-03-28T17:47:44.970Z,8.50
2018-03-28T17:50:20.345Z,8.60
2018-03-28T17:52:55.598Z,8.70
2018-03-28T17:55:31.138Z,8.50
2018-03-28T17:58:06.274Z,8.50
2018-03-28T18:00:41.410Z,8.50
2018-03-28T18:03:16.727Z,8.50
2018-03-28T18:05:52.757Z,8.60
2018-03-28T18:08:29.915Z,8.60
2018-03-28T18:11:05.065Z,8.50
2018-03-28T18:13:40.263Z,8.40
2018-03-28T18:16:15.590Z,8.60
2018-03-28T18:18:50.729Z,8.60
2018-03-28T18:21:26.817Z,8.70
2018-03-28T18:24:02.024Z,8.70
2018-03-28T18:26:37.298Z,8.60
2018-03-28T18:29:12.546Z,8.50
2018-03-28T18:31:47.835Z,8.60
2018-03-28T18:34:23.001Z,8.50
2018-03-28T18:36:58.416Z,8.60
2018-03-28T18:39:33.523Z,8.50
2018-03-28T18:42:08.813Z,8.60
2018-03-28T18:44:44.066Z,8.70
2018-03-28T18:47:20.448Z,8.60
2018-03-28T18:49:55.568Z,8.60
2018-03-28T18:52:31.000Z,8.60
2018-03-28T18:55:09.030Z,8.80
2018-03-28T18:57:44.318Z,8.80
2018-03-28T19:00:20.652Z,8.90
2018-03-28T19:02:55.810Z,8.90
2018-03-28T19:05:31.035Z,8.90
2018-03-28T19:08:06.996Z,8.90
2018-03-28T19:10:42.228Z,8.90
2018-03-28T19:13:17.327Z,8.90
2018-03-28T19:15:52.463Z,8.90
2018-03-28T19:18:27.678Z,8.90
2018-03-28T19:21:03.167Z,8.90
2018-03-28T19:23:38.251Z,8.80
2018-03-28T19:26:13.481Z,8.80
2018-03-28T19:28:49.438Z,8.70
2018-03-28T19:31:24.693Z,8.70
2018-03-28T19:33:59.807Z,8.70
2018-03-28T19:36:35.078Z,8.70
2018-03-28T19:39:10.878Z,8.60
2018-03-28T19:41:46.031Z,8.60
2018-03-28T19:44:23.246Z,8.60
2018-03-28T19:46:58.763Z,8.60
2018-03-28T19:49:34.006Z,8.60
2018-03-28T19:52:09.144Z,8.70
2018-03-28T19:54:46.043Z,8.80
2018-03-28T19:57:22.325Z,8.80
2018-03-28T19:59:57.686Z,8.80
2018-03-28T20:02:33.075Z,8.90
2018-03-28T20:05:17.279Z,8.90
2018-03-28T20:07:53.143Z,8.90
2018-03-28T20:10:28.265Z,8.90
2018-03-28T20:13:04.328Z,8.80
2018-03-28T20:15:39.483Z,8.80
2018-03-28T20:18:14.811Z,8.90
2018-03-28T20:20:51.395Z,8.80
2018-03-28T20:23:26.824Z,8.90
2018-03-28T20:26:01.936Z,8.80
2018-03-28T20:28:37.290Z,8.80
2018-03-28T20:31:12.526Z,8.80
2018-03-28T20:33:47.865Z,8.70
2018-03-28T20:36:23.139Z,8.70
2018-03-28T20:38:58.366Z,8.70
2018-03-28T20:41:33.578Z,8.60
2018-03-28T20:44:08.756Z,8.60
2018-03-28T20:46:44.843Z,8.50
2018-03-28T20:49:20.350Z,8.50
2018-03-28T20:51:55.480Z,8.50
2018-03-28T20:54:30.686Z,8.50
2018-03-28T20:57:05.790Z,8.50
2018-03-28T20:59:40.994Z,8.50
2018-03-28T21:02:16.246Z,8.50
2018-03-28T21:04:51.465Z,8.50
2018-03-28T21:07:26.762Z,8.40
2018-03-28T21:10:02.015Z,8.40
2018-03-28T21:12:37.238Z,8.40
2018-03-28T21:15:12.502Z,8.40
2018-03-28T21:17:47.765Z,8.20
2018-03-28T21:20:23.103Z,8.20
2018-03-28T21:22:58.391Z,8.20
2018-03-28T21:25:33.564Z,8.20
2018-03-28T21:28:08.865Z,8.10
2018-03-28T21:30:44.835Z,8.10
2018-03-28T21:33:20.321Z,8.10
2018-03-28T21:35:55.414Z,8.00
2018-03-28T21:38:30.550Z,8.00
2018-03-28T21:41:05.808Z,7.90
2018-03-28T21:43:41.127Z,7.90
2018-03-28T21:46:16.360Z,7.80
2018-03-28T21:48:51.618Z,7.70
2018-03-28T21:51:26.919Z,7.60
2018-03-28T21:54:02.137Z,7.50
2018-03-28T21:56:37.299Z,7.50
2018-03-28T21:59:12.394Z,7.40
2018-03-28T22:01:47.624Z,7.10
2018-03-28T22:04:24.220Z,7.30
2018-03-28T22:06:59.331Z,7.30
2018-03-28T22:09:34.612Z,7.20
2018-03-28T22:12:09.886Z,7.10
2018-03-28T22:14:45.090Z,7.10
2018-03-28T22:17:22.081Z,7.10
2018-03-28T22:19:57.218Z,7.00
2018-03-28T22:22:32.435Z,7.00
2018-03-28T22:25:08.435Z,6.80
2018-03-28T22:27:43.755Z,6.80
2018-03-28T22:30:18.941Z,6.80
2018-03-28T22:32:54.185Z,6.70
2018-03-28T22:35:29.579Z,6.60
2018-03-28T22:38:04.666Z,6.60
2018-03-28T22:40:40.238Z,6.60
2018-03-28T22:43:15.297Z,6.60
2018-03-28T22:45:52.146Z,6.50
2018-03-28T22:48:27.349Z,6.50
2018-03-28T22:51:02.495Z,6.40
2018-03-28T22:53:37.714Z,6.40
2018-03-28T22:56:12.853Z,6.30
2018-03-28T22:58:48.047Z,6.20
2018-03-28T23:01:23.280Z,6.10
2018-03-28T23:03:59.142Z,6.10
2018-03-28T23:06:34.471Z,6.00
2018-03-28T23:09:09.704Z,6.00
2018-03-28T23:11:44.977Z,6.00
2018-03-28T23:14:21.801Z,6.00
2018-03-28T23:16:56.936Z,6.00
2018-03-28T23:19:32.786Z,6.00
2018-03-28T23:22:08.147Z,6.00
2018-03-28T23:24:43.315Z,6.00
2018-03-28T23:27:18.514Z,6.00
2018-03-28T23:29:53.783Z,5.90
2018-03-28T23:32:29.084Z,5.90
2018-03-28T23:35:04.346Z,5.80
2018-03-28T23:37:40.701Z,5.80
2018-03-28T23:40:15.946Z,5.70
2018-03-28T23:42:51.631Z,5.60
2018-03-28T23:45:26.674Z,5.60
2018-03-28T23:48:01.938Z,5.50
2018-03-28T23:50:45.091Z,5.50
2018-03-28T23:53:20.572Z,5.50
2018-03-28T23:55:55.660Z,5.50
2018-03-28T23:58:30.829Z,5.50
